createdAt,value
2018-02-11T00:02:21.981Z,0.70
2018-02-11T00:04:50.320Z,0.60
2018-02-11T00:07:17.869Z,0.60
2018-02-11T00:09:45.426Z,0.60
2018-02-11T00:12:12.984Z,0.60
2018-02-11T00:14:40.538Z,0.70
2018-02-11T00:17:08.091Z,0.60
2018-02-11T00:19:35.640Z,0.60
2018-02-11T00:22:03.191Z,0.70
2018-02-11T00:24:30.740Z,0.70
2018-02-11T00:26:59.076Z,0.60
2018-02-11T00:29:26.649Z,0.60
2018-02-11T00:31:54.210Z,0.60
2018-02-11T00:34:21.776Z,0.60
2018-02-11T00:36:54.375Z,0.60
2018-02-11T00:39:22.719Z,0.70
2018-02-11T00:41:50.252Z,0.60
2018-02-11T00:44:17.833Z,0.60
2018-02-11T00:46:45.415Z,0.60
2018-02-11T00:49:12.971Z,0.60
2018-02-11T00:51:40.553Z,0.60
2018-02-11T00:54:08.895Z,0.60
2018-02-11T00:56:36.435Z,0.60
2018-02-11T00:59:03.985Z,0.70
2018-02-11T01:01:31.606Z,0.60
2018-02-11T01:03:59.208Z,0.50
2018-02-11T01:06:26.766Z,0.50
2018-02-11T01:08:54.312Z,0.50
2018-02-11T01:11:21.909Z,0.60
2018-02-11T01:13:49.474Z,0.50
2018-02-11T01:16:17.041Z,0.50
2018-02-11T01:18:44.584Z,0.50
2018-02-11T01:21:12.131Z,0.50
2018-02-11T01:23:39.685Z,0.50
2018-02-11T01:26:07.264Z,0.60
2018-02-11T01:28:34.820Z,0.50
2018-02-11T01:31:02.401Z,0.50
2018-02-11T01:33:29.944Z,0.40
2018-02-11T01:35:57.504Z,0.40
2018-02-11T01:38:25.079Z,0.20
2018-02-11T01:40:52.710Z,0.20
2018-02-11T01:43:20.292Z,0.20
2018-02-11T01:45:47.857Z,0.20
2018-02-11T01:48:15.433Z,0.20
2018-02-11T01:50:42.977Z,0.10
2018-02-11T01:53:10.563Z,0.20
2018-02-11T01:55:38.995Z,0.20
2018-02-11T01:58:06.548Z,0.20
2018-02-11T02:00:34.092Z,0.20
2018-02-11T02:03:01.692Z,0.20
2018-02-11T02:05:29.241Z,0.10
2018-02-11T02:07:56.812Z,0.20
2018-02-11T02:10:24.349Z,0.20
2018-02-11T02:12:51.900Z,0.20
2018-02-11T02:15:19.446Z,0.30
2018-02-11T02:17:47.263Z,0.20
2018-02-11T02:20:14.860Z,0.20
2018-02-11T02:22:43.193Z,0.20
2018-02-11T02:25:10.742Z,0.20
2018-02-11T02:27:38.291Z,0.20
2018-02-11T02:30:05.841Z,0.30
2018-02-11T02:32:33.378Z,0.30
2018-02-11T02:35:01.711Z,0.30
2018-02-11T02:37:29.250Z,0.20
2018-02-11T02:39:56.809Z,0.20
2018-02-11T02:42:24.368Z,0.20
2018-02-11T02:44:52.034Z,0.20
2018-02-11T02:47:19.581Z,0.10
2018-02-11T02:49:47.171Z,0.10
2018-02-11T02:52:14.728Z,0.10
2018-02-11T02:54:42.285Z,0.10
2018-02-11T02:57:09.830Z,0.10
2018-02-11T02:59:37.374Z,0.10
2018-02-11T03:02:04.933Z,0.00
2018-02-11T03:04:32.473Z,0.00
2018-02-11T03:07:00.813Z,-0.10
2018-02-11T03:09:28.406Z,-0.10
2018-02-11T03:11:56.718Z,-0.10
2018-02-11T03:14:24.283Z,-0.10
2018-02-11T03:16:51.838Z,0.00
2018-02-11T03:19:19.413Z,-0.10
2018-02-11T03:21:47.001Z,-0.10
2018-02-11T03:24:14.630Z,0.00
2018-02-11T03:26:42.187Z,0.00
2018-02-11T03:29:09.720Z,0.00
2018-02-11T03:31:38.077Z,0.00
2018-02-11T03:34:06.399Z,0.00
2018-02-11T03:36:33.957Z,0.00
2018-02-11T03:39:01.525Z,0.00
2018-02-11T03:41:29.097Z,-0.10
2018-02-11T03:43:56.636Z,-0.10
2018-02-11T03:46:24.168Z,0.00
2018-02-11T03:48:52.490Z,0.00
2018-02-11T03:51:20.044Z,0.00
2018-02-11T03:53:47.595Z,0.10
2018-02-11T03:56:15.124Z,0.10
2018-02-11T03:58:43.443Z,0.10
2018-02-11T04:01:10.977Z,0.10
2018-02-11T04:03:38.531Z,0.20
2018-02-11T04:06:06.838Z,0.10
2018-02-11T04:08:34.371Z,0.10
2018-02-11T04:11:02.699Z,0.10
2018-02-11T04:13:30.260Z,0.10
2018-02-11T04:15:57.813Z,0.10
2018-02-11T04:18:25.448Z,0.10
2018-02-11T04:20:53.045Z,0.10
2018-02-11T04:23:20.599Z,0.10
2018-02-11T04:25:48.168Z,0.20
2018-02-11T04:28:15.720Z,0.20
2018-02-11T04:30:43.288Z,0.20
2018-02-11T04:33:10.844Z,0.10
2018-02-11T04:35:38.408Z,0.20
2018-02-11T04:38:05.983Z,0.20
2018-02-11T04:40:33.555Z,0.20
2018-02-11T04:43:01.890Z,0.20
2018-02-11T04:45:29.457Z,0.20
2018-02-11T04:47:57.012Z,0.20
2018-02-11T04:50:24.575Z,0.20
2018-02-11T04:52:52.133Z,0.20
2018-02-11T04:55:19.692Z,0.20
2018-02-11T04:57:47.262Z,0.20
2018-02-11T05:00:14.821Z,0.20
2018-02-11T05:02:42.368Z,0.20
2018-02-11T05:05:09.944Z,0.20
2018-02-11T05:07:37.511Z,0.20
2018-02-11T05:10:05.070Z,0.20
2018-02-11T05:12:32.587Z,0.20
2018-02-11T05:15:00.143Z,0.20
2018-02-11T05:17:27.684Z,0.30
2018-02-11T05:19:55.995Z,0.30
2018-02-11T05:22:23.549Z,0.20
2018-02-11T05:24:51.097Z,0.30
2018-02-11T05:27:18.658Z,0.30
2018-02-11T05:29:46.188Z,0.30
2018-02-11T05:32:14.525Z,0.30
2018-02-11T05:34:42.087Z,0.30
2018-02-11T05:37:09.677Z,0.30
2018-02-11T05:39:37.284Z,0.30
2018-02-11T05:42:04.843Z,0.30
2018-02-11T05:44:32.373Z,0.30
2018-02-11T05:47:00.702Z,0.40
2018-02-11T05:49:28.245Z,0.30
2018-02-11T05:51:55.825Z,0.30
2018-02-11T05:54:23.382Z,0.30
2018-02-11T05:56:50.917Z,0.30
2018-02-11T05:59:18.469Z,0.30
2018-02-11T06:01:46.030Z,0.30
2018-02-11T06:04:13.591Z,0.20
2018-02-11T06:06:41.152Z,0.20
2018-02-11T06:09:08.693Z,0.20
2018-02-11T06:11:37.013Z,0.20
2018-02-11T06:14:04.580Z,0.20
2018-02-11T06:16:32.108Z,0.20
2018-02-11T06:18:59.657Z,0.30
2018-02-11T06:21:27.219Z,0.20
2018-02-11T06:23:54.759Z,0.30
2018-02-11T06:26:23.093Z,0.30
2018-02-11T06:28:50.664Z,0.20
2018-02-11T06:31:18.216Z,0.30
2018-02-11T06:33:45.740Z,0.40
2018-02-11T06:36:13.301Z,0.30
2018-02-11T06:38:40.876Z,0.30
2018-02-11T06:41:08.456Z,0.30
2018-02-11T06:43:35.995Z,0.30
2018-02-11T06:46:03.589Z,0.30
2018-02-11T06:48:31.119Z,0.30
2018-02-11T06:50:58.750Z,0.30
2018-02-11T06:53:28.340Z,0.40
2018-02-11T06:55:56.664Z,0.40
2018-02-11T06:58:24.219Z,0.40
2018-02-11T07:00:51.778Z,0.40
2018-02-11T07:03:19.324Z,0.40
2018-02-11T07:05:46.861Z,0.40
2018-02-11T07:08:14.427Z,0.50
2018-02-11T07:10:42.744Z,0.60
2018-02-11T07:13:10.316Z,0.60
2018-02-11T07:15:38.005Z,0.60
2018-02-11T07:18:05.546Z,0.70
2018-02-11T07:20:33.083Z,0.70
2018-02-11T07:23:00.646Z,0.70
2018-02-11T07:25:28.204Z,0.80
2018-02-11T07:27:55.752Z,0.80
2018-02-11T07:30:23.308Z,0.80
2018-02-11T07:32:50.846Z,0.80
2018-02-11T07:35:19.172Z,0.80
2018-02-11T07:37:46.767Z,0.80
2018-02-11T07:40:14.371Z,0.80
2018-02-11T07:42:41.905Z,0.80
2018-02-11T07:45:10.221Z,0.90
2018-02-11T07:47:38.965Z,0.90
2018-02-11T07:50:06.533Z,1.00
2018-02-11T07:52:34.849Z,1.00
2018-02-11T07:55:02.458Z,1.00
2018-02-11T07:57:30.811Z,1.10
2018-02-11T07:59:58.399Z,1.10
2018-02-11T08:02:26.779Z,1.20
2018-02-11T08:04:54.389Z,1.10
2018-02-11T08:07:21.950Z,1.20
2018-02-11T08:09:49.569Z,1.40
2018-02-11T08:12:17.160Z,1.50
2018-02-11T08:14:44.699Z,1.50
2018-02-11T08:17:13.013Z,1.50
2018-02-11T08:19:40.566Z,1.50
2018-02-11T08:22:08.120Z,1.50
2018-02-11T08:24:35.664Z,1.50
2018-02-11T08:27:03.212Z,1.60
2018-02-11T08:29:31.553Z,1.30
2018-02-11T08:31:59.096Z,1.30
2018-02-11T08:34:26.669Z,1.30
2018-02-11T08:36:54.201Z,1.40
2018-02-11T08:39:21.769Z,1.40
2018-02-11T08:41:49.318Z,1.30
2018-02-11T08:44:16.904Z,1.40
2018-02-11T08:46:44.443Z,1.30
2018-02-11T08:49:13.426Z,1.40
2018-02-11T08:51:40.991Z,1.40
2018-02-11T08:54:08.588Z,1.30
2018-02-11T08:56:36.142Z,1.30
2018-02-11T08:59:04.419Z,1.40
2018-02-11T09:01:31.968Z,1.20
2018-02-11T09:03:59.569Z,1.30
2018-02-11T09:06:27.892Z,1.30
2018-02-11T09:08:55.468Z,1.30
2018-02-11T09:11:23.010Z,1.40
2018-02-11T09:13:50.584Z,1.40
2018-02-11T09:16:18.110Z,1.30
2018-02-11T09:18:45.684Z,1.30
2018-02-11T09:21:13.254Z,1.40
2018-02-11T09:23:40.825Z,1.40
2018-02-11T09:26:08.405Z,1.50
2018-02-11T09:28:35.964Z,1.40
2018-02-11T09:31:03.532Z,1.40
2018-02-11T09:33:31.837Z,1.50
2018-02-11T09:36:00.163Z,1.50
2018-02-11T09:38:27.716Z,1.50
2018-02-11T09:40:55.407Z,1.50
2018-02-11T09:43:23.005Z,1.50
2018-02-11T09:45:51.366Z,1.30
2018-02-11T09:48:19.682Z,1.40
2018-02-11T09:50:47.296Z,1.40
2018-02-11T09:53:15.612Z,1.50
2018-02-11T09:55:43.169Z,1.50
2018-02-11T09:58:10.729Z,1.70
2018-02-11T10:00:38.285Z,1.80
2018-02-11T10:03:05.825Z,1.60
2018-02-11T10:05:34.173Z,1.60
2018-02-11T10:08:01.737Z,1.60
2018-02-11T10:10:29.309Z,1.70
2018-02-11T10:12:56.924Z,1.80
2018-02-11T10:15:24.472Z,1.70
2018-02-11T10:17:52.025Z,1.80
2018-02-11T10:20:19.596Z,1.80
2018-02-11T10:22:47.182Z,1.60
2018-02-11T10:25:14.754Z,1.70
2018-02-11T10:27:42.306Z,1.80
2018-02-11T10:30:10.676Z,2.00
2018-02-11T10:32:38.238Z,2.10
2018-02-11T10:35:05.779Z,2.20
2018-02-11T10:37:33.351Z,2.30
2018-02-11T10:40:00.901Z,2.50
2018-02-11T10:42:28.467Z,2.30
2018-02-11T10:44:56.318Z,2.30
2018-02-11T10:47:23.873Z,2.20
2018-02-11T10:49:51.486Z,2.20
2018-02-11T10:52:20.642Z,2.50
2018-02-11T10:54:48.189Z,2.40
2018-02-11T10:57:15.745Z,2.80
2018-02-11T10:59:43.314Z,3.30
2018-02-11T11:02:10.859Z,3.80
2018-02-11T11:04:39.173Z,4.00
2018-02-11T11:07:06.837Z,3.90
2018-02-11T11:09:34.395Z,3.60
2018-02-11T11:12:01.967Z,3.60
2018-02-11T11:14:29.511Z,3.40
2018-02-11T11:16:57.065Z,3.30
2018-02-11T11:19:24.624Z,3.30
2018-02-11T11:21:52.171Z,3.10
2018-02-11T11:24:19.736Z,3.20
2018-02-11T11:26:47.281Z,3.10
2018-02-11T11:29:14.836Z,3.10
2018-02-11T11:31:43.746Z,3.20
2018-02-11T11:34:11.345Z,3.20
2018-02-11T11:36:38.903Z,3.10
2018-02-11T11:39:06.482Z,3.20
2018-02-11T11:41:34.050Z,3.30
2018-02-11T11:44:01.589Z,3.10
2018-02-11T11:46:29.167Z,3.20
2018-02-11T11:48:56.709Z,3.30
2018-02-11T11:51:24.272Z,3.30
2018-02-11T11:53:51.825Z,3.20
2018-02-11T11:56:19.384Z,3.30
2018-02-11T11:58:46.926Z,3.30
2018-02-11T12:01:14.492Z,3.30
2018-02-11T12:03:42.050Z,3.40
2018-02-11T12:06:09.612Z,3.40
2018-02-11T12:08:37.204Z,3.40
2018-02-11T12:11:04.863Z,3.50
2018-02-11T12:13:32.449Z,3.50
2018-02-11T12:16:00.776Z,3.80
2018-02-11T12:18:28.361Z,3.80
2018-02-11T12:20:55.905Z,3.80
2018-02-11T12:23:23.493Z,3.80
2018-02-11T12:25:51.062Z,3.90
2018-02-11T12:28:19.417Z,3.80
2018-02-11T12:30:46.985Z,3.80
2018-02-11T12:33:15.330Z,3.90
2018-02-11T12:35:42.887Z,3.90
2018-02-11T12:38:10.471Z,4.00
2018-02-11T12:40:38.039Z,3.80
2018-02-11T12:43:05.588Z,3.90
2018-02-11T12:45:33.354Z,4.00
2018-02-11T12:48:00.987Z,4.00
2018-02-11T12:50:28.540Z,3.90
2018-02-11T12:52:56.096Z,3.80
2018-02-11T12:55:23.703Z,3.80
2018-02-11T12:57:51.268Z,3.80
2018-02-11T13:00:18.840Z,3.90
2018-02-11T13:02:47.183Z,4.10
2018-02-11T13:05:14.788Z,4.10
2018-02-11T13:07:43.099Z,3.80
2018-02-11T13:10:10.836Z,3.80
2018-02-11T13:12:39.165Z,3.70
2018-02-11T13:15:06.750Z,3.70
2018-02-11T13:17:34.321Z,3.70
2018-02-11T13:20:03.379Z,3.60
2018-02-11T13:22:30.950Z,3.60
2018-02-11T13:24:58.557Z,3.60
2018-02-11T13:27:26.127Z,3.50
2018-02-11T13:29:53.674Z,3.50
2018-02-11T13:32:21.213Z,3.60
2018-02-11T13:34:49.577Z,3.60
2018-02-11T13:37:17.119Z,3.60
2018-02-11T13:39:44.745Z,3.60
2018-02-11T13:42:12.280Z,3.60
2018-02-11T13:44:39.856Z,3.50
2018-02-11T13:47:07.404Z,3.50
2018-02-11T13:49:35.715Z,3.30
2018-02-11T13:52:03.265Z,3.30
2018-02-11T13:54:30.835Z,3.30
2018-02-11T13:56:58.394Z,3.40
2018-02-11T13:59:25.972Z,3.30
2018-02-11T14:01:53.513Z,3.20
2018-02-11T14:04:21.093Z,3.20
2018-02-11T14:06:48.656Z,3.20
2018-02-11T14:09:16.208Z,3.10
2018-02-11T14:11:43.760Z,3.10
2018-02-11T14:14:11.315Z,3.10
2018-02-11T14:16:38.872Z,3.20
2018-02-11T14:19:06.469Z,3.20
2018-02-11T14:21:34.016Z,3.00
2018-02-11T14:24:01.592Z,3.10
2018-02-11T14:26:29.158Z,3.00
2018-02-11T14:28:58.244Z,3.10
2018-02-11T14:31:25.950Z,3.10
2018-02-11T14:33:53.565Z,2.90
2018-02-11T14:36:21.123Z,3.00
2018-02-11T14:38:48.704Z,3.10
2018-02-11T14:41:16.290Z,3.00
2018-02-11T14:43:44.650Z,3.20
2018-02-11T14:46:12.976Z,3.10
2018-02-11T14:48:40.596Z,3.10
2018-02-11T14:51:08.949Z,3.10
2018-02-11T14:53:36.501Z,3.10
2018-02-11T14:56:04.063Z,3.00
2018-02-11T14:58:31.612Z,3.00
2018-02-11T15:00:59.186Z,3.10
2018-02-11T15:03:26.752Z,3.10
2018-02-11T15:05:54.331Z,3.20
2018-02-11T15:08:22.633Z,3.30
2018-02-11T15:10:50.212Z,3.20
2018-02-11T15:13:17.748Z,3.20
2018-02-11T15:15:46.111Z,3.20
2018-02-11T15:18:14.416Z,3.20
2018-02-11T15:20:41.961Z,3.20
2018-02-11T15:23:09.534Z,3.30
2018-02-11T15:25:37.076Z,3.10
2018-02-11T15:28:05.413Z,3.10
2018-02-11T15:30:32.969Z,3.00
2018-02-11T15:33:00.543Z,3.10
2018-02-11T15:35:28.858Z,3.20
2018-02-11T15:37:57.216Z,3.20
2018-02-11T15:40:25.560Z,3.20
2018-02-11T15:42:53.155Z,3.10
2018-02-11T15:45:20.734Z,3.10
2018-02-11T15:47:49.048Z,3.20
2018-02-11T15:50:16.630Z,3.10
2018-02-11T15:52:44.154Z,3.20
2018-02-11T15:55:11.741Z,3.20
2018-02-11T15:57:39.305Z,3.10
2018-02-11T16:00:06.930Z,3.20
2018-02-11T16:02:34.484Z,3.20
2018-02-11T16:05:02.037Z,3.10
2018-02-11T16:07:29.597Z,3.00
2018-02-11T16:09:57.163Z,3.00
2018-02-11T16:12:24.730Z,3.00
2018-02-11T16:14:52.281Z,3.00
2018-02-11T16:17:19.837Z,3.00
2018-02-11T16:19:47.382Z,3.00
2018-02-11T16:22:15.706Z,2.90
2018-02-11T16:24:43.264Z,2.90
2018-02-11T16:27:10.838Z,3.00
2018-02-11T16:29:38.410Z,3.00
2018-02-11T16:32:06.042Z,3.00
2018-02-11T16:34:33.603Z,2.90
2018-02-11T16:37:01.170Z,2.90
2018-02-11T16:39:28.748Z,2.90
2018-02-11T16:41:56.301Z,2.90
2018-02-11T16:44:23.879Z,2.90
2018-02-11T16:46:51.450Z,2.90
2018-02-11T16:49:19.779Z,2.90
2018-02-11T16:51:48.539Z,2.90
2018-02-11T16:54:16.942Z,3.00
2018-02-11T16:56:44.496Z,2.90
2018-02-11T16:59:12.071Z,2.90
2018-02-11T17:01:39.740Z,3.00
2018-02-11T17:04:07.321Z,3.00
2018-02-11T17:06:34.865Z,3.00
2018-02-11T17:09:02.438Z,3.00
2018-02-11T17:11:30.382Z,2.90
2018-02-11T17:13:57.983Z,3.00
2018-02-11T17:16:26.320Z,2.90
2018-02-11T17:18:53.903Z,2.90
2018-02-11T17:21:21.472Z,2.90
2018-02-11T17:23:49.045Z,2.90
2018-02-11T17:26:16.632Z,2.80
2018-02-11T17:28:44.184Z,2.80
2018-02-11T17:31:12.521Z,2.80
2018-02-11T17:33:40.073Z,2.70
2018-02-11T17:36:07.645Z,2.70
2018-02-11T17:38:35.198Z,2.60
2018-02-11T17:41:02.890Z,2.60
2018-02-11T17:43:31.259Z,2.60
2018-02-11T17:45:58.857Z,2.60
2018-02-11T17:48:26.444Z,2.50
2018-02-11T17:50:54.022Z,2.60
2018-02-11T17:53:21.596Z,2.50
2018-02-11T17:55:49.141Z,2.40
2018-02-11T17:58:16.744Z,2.40
2018-02-11T18:00:46.015Z,2.50
2018-02-11T18:03:13.582Z,2.50
2018-02-11T18:05:41.169Z,2.60
2018-02-11T18:08:09.474Z,2.60
2018-02-11T18:10:37.097Z,2.60
2018-02-11T18:13:05.417Z,2.50
2018-02-11T18:15:32.993Z,2.50
2018-02-11T18:18:00.588Z,2.50
2018-02-11T18:20:28.207Z,2.40
2018-02-11T18:22:56.518Z,2.30
2018-02-11T18:25:24.864Z,2.30
2018-02-11T18:27:52.437Z,2.30
2018-02-11T18:30:20.015Z,2.30
2018-02-11T18:32:48.364Z,2.20
2018-02-11T18:35:16.596Z,2.20
2018-02-11T18:37:44.975Z,2.20
2018-02-11T18:40:13.330Z,2.20
2018-02-11T18:42:40.895Z,2.20
2018-02-11T18:45:08.431Z,2.10
2018-02-11T18:47:36.027Z,2.10
2018-02-11T18:50:05.530Z,2.00
2018-02-11T18:52:34.269Z,1.90
2018-02-11T18:55:01.881Z,1.90
2018-02-11T18:57:30.212Z,1.90
2018-02-11T18:59:57.770Z,1.90
2018-02-11T19:02:25.397Z,1.80
2018-02-11T19:04:52.971Z,1.90
2018-02-11T19:07:20.549Z,1.80
2018-02-11T19:09:48.105Z,1.90
2018-02-11T19:12:15.676Z,1.90
2018-02-11T19:14:43.459Z,1.90
2018-02-11T19:17:11.057Z,1.90
2018-02-11T19:19:39.411Z,2.00
2018-02-11T19:22:08.158Z,1.90
2018-02-11T19:24:35.753Z,1.90
2018-02-11T19:27:07.579Z,1.90
2018-02-11T19:29:35.491Z,1.90
2018-02-11T19:32:03.034Z,1.90
2018-02-11T19:34:30.609Z,1.90
2018-02-11T19:36:58.205Z,1.80
2018-02-11T19:39:25.770Z,2.00
2018-02-11T19:41:53.337Z,2.00
2018-02-11T19:44:20.910Z,1.90
2018-02-11T19:46:48.445Z,2.00
2018-02-11T19:49:15.992Z,1.90
2018-02-11T19:51:44.344Z,1.90
2018-02-11T19:54:11.893Z,1.90
2018-02-11T19:56:39.460Z,1.90
2018-02-11T19:59:07.008Z,1.90
2018-02-11T20:01:34.588Z,1.90
2018-02-11T20:04:02.217Z,2.00
2018-02-11T20:06:29.774Z,1.90
2018-02-11T20:08:57.367Z,2.00
2018-02-11T20:11:24.933Z,2.00
2018-02-11T20:13:52.481Z,2.00
2018-02-11T20:16:20.042Z,2.00
2018-02-11T20:18:47.642Z,2.00
2018-02-11T20:21:15.216Z,2.00
2018-02-11T20:23:42.759Z,1.90
2018-02-11T20:26:10.312Z,1.90
2018-02-11T20:28:38.713Z,1.80
2018-02-11T20:31:06.260Z,1.80
2018-02-11T20:33:34.378Z,1.70
2018-02-11T20:36:01.918Z,1.70
2018-02-11T20:38:29.514Z,1.70
2018-02-11T20:40:57.201Z,1.70
2018-02-11T20:43:25.557Z,1.60
2018-02-11T20:45:53.097Z,1.60
2018-02-11T20:48:20.667Z,1.60
2018-02-11T20:50:48.235Z,1.60
2018-02-11T20:53:15.819Z,1.50
2018-02-11T20:55:44.144Z,1.60
2018-02-11T20:58:11.700Z,1.60
2018-02-11T21:00:39.249Z,1.50
2018-02-11T21:03:06.803Z,1.50
2018-02-11T21:05:34.483Z,1.50
2018-02-11T21:08:02.073Z,1.50
2018-02-11T21:10:29.632Z,1.50
2018-02-11T21:12:57.208Z,1.50
2018-02-11T21:15:24.797Z,1.50
2018-02-11T21:17:53.129Z,1.50
2018-02-11T21:20:20.699Z,1.50
2018-02-11T21:22:48.245Z,1.60
2018-02-11T21:25:15.804Z,1.50
2018-02-11T21:27:43.369Z,1.50
2018-02-11T21:30:10.917Z,1.50
2018-02-11T21:32:38.460Z,1.50
2018-02-11T21:35:06.003Z,1.60
2018-02-11T21:37:33.580Z,1.60
2018-02-11T21:40:01.129Z,1.60
2018-02-11T21:42:28.669Z,1.60
2018-02-11T21:44:56.981Z,1.60
2018-02-11T21:47:24.527Z,1.60
2018-02-11T21:49:52.086Z,1.70
2018-02-11T21:52:19.632Z,1.60
2018-02-11T21:54:47.981Z,1.70
2018-02-11T21:57:15.524Z,1.70
2018-02-11T21:59:43.110Z,1.70
2018-02-11T22:02:11.437Z,1.60
2018-02-11T22:04:39.013Z,1.70
2018-02-11T22:07:06.560Z,1.60
2018-02-11T22:09:34.128Z,1.60
2018-02-11T22:12:01.679Z,1.50
2018-02-11T22:14:29.257Z,1.50
2018-02-11T22:16:56.815Z,1.40
2018-02-11T22:19:24.350Z,1.40
2018-02-11T22:21:51.930Z,1.30
2018-02-11T22:24:19.464Z,1.30
2018-02-11T22:26:47.048Z,1.30
2018-02-11T22:29:14.585Z,1.20
2018-02-11T22:31:42.156Z,1.20
2018-02-11T22:34:09.720Z,1.20
2018-02-11T22:36:37.275Z,1.20
2018-02-11T22:39:04.844Z,1.20
2018-02-11T22:41:32.405Z,1.20
2018-02-11T22:43:59.948Z,1.20
2018-02-11T22:46:27.520Z,1.30
2018-02-11T22:48:55.101Z,1.30
2018-02-11T22:51:22.654Z,1.30
2018-02-11T22:53:50.994Z,1.30
2018-02-11T22:56:18.557Z,1.30
2018-02-11T22:58:46.101Z,1.30
2018-02-11T23:01:14.431Z,1.30
2018-02-11T23:03:41.992Z,1.30
2018-02-11T23:06:09.546Z,1.40
2018-02-11T23:08:37.112Z,1.40
2018-02-11T23:11:05.531Z,1.40
2018-02-11T23:13:33.865Z,1.50
2018-02-11T23:16:01.400Z,1.50
2018-02-11T23:18:28.956Z,1.50
2018-02-11T23:20:56.504Z,1.60
2018-02-11T23:23:24.060Z,1.60
2018-02-11T23:25:52.389Z,1.70
2018-02-11T23:28:19.949Z,1.70
2018-02-11T23:30:47.484Z,1.70
2018-02-11T23:33:15.053Z,1.70
2018-02-11T23:35:42.650Z,1.70
2018-02-11T23:38:10.176Z,1.60
2018-02-11T23:40:37.731Z,1.70
2018-02-11T23:43:05.279Z,1.70
2018-02-11T23:45:32.833Z,1.70
2018-02-11T23:48:00.395Z,1.70
2018-02-11T23:50:28.072Z,1.70
2018-02-11T23:52:55.605Z,1.70
2018-02-11T23:55:23.171Z,1.70
2018-02-11T23:57:50.748Z,1.70
